createdAt,value
2019-04-30T00:01:18.882Z,80.95
2019-04-30T00:03:55.741Z,75.40
2019-04-30T00:06:34.097Z,77.62
2019-04-30T00:09:00.135Z,77.05
2019-04-30T00:11:31.644Z,81.37
2019-04-30T00:16:39.880Z,74.82
2019-04-30T00:19:10.719Z,77.97
2019-04-30T00:21:42.730Z,78.20
2019-04-30T00:26:51.844Z,66.05
2019-04-30T00:29:26.542Z,69.72
2019-04-30T00:31:51.444Z,78.22
2019-04-30T00:34:24.888Z,73.28
2019-04-30T00:36:56.106Z,78.45
2019-04-30T00:41:58.723Z,81.03
2019-04-30T00:47:04.921Z,72.45
2019-04-30T00:49:35.067Z,73.22
2019-04-30T00:52:06.719Z,74.47
2019-04-30T00:57:08.625Z,80.32
2019-04-30T01:02:32.151Z,85.20
2019-04-30T01:05:09.718Z,81.55
2019-04-30T01:07:48.679Z,92.40
2019-04-30T01:10:15.301Z,85.12
2019-04-30T01:12:49.991Z,76.70
2019-04-30T01:15:21.079Z,87.67
2019-04-30T01:17:53.947Z,93.27
2019-04-30T01:20:31.397Z,82.88
2019-04-30T01:23:03.068Z,91.37
2019-04-30T01:25:33.735Z,86.10
2019-04-30T01:28:06.226Z,80.20
2019-04-30T01:30:39.297Z,84.32
2019-04-30T01:33:11.144Z,79.37
2019-04-30T01:35:42.660Z,95.25
2019-04-30T01:40:47.427Z,76.45
2019-04-30T01:43:23.200Z,82.80
2019-04-30T01:45:51.426Z,86.37
2019-04-30T01:48:23.019Z,85.87
2019-04-30T01:50:54.393Z,82.22
2019-04-30T01:53:25.800Z,86.28
2019-04-30T01:58:43.133Z,83.05
2019-04-30T02:01:19.208Z,90.72
2019-04-30T02:03:50.793Z,86.32
2019-04-30T02:06:22.301Z,80.75
2019-04-30T02:08:53.794Z,81.05
2019-04-30T02:11:25.259Z,87.92
2019-04-30T02:13:56.836Z,78.92
2019-04-30T02:16:28.923Z,92.02
2019-04-30T02:19:00.630Z,89.05
2019-04-30T02:21:33.452Z,79.55
2019-04-30T02:24:05.090Z,82.95
2019-04-30T02:26:38.390Z,89.45
2019-04-30T02:29:09.753Z,81.78
2019-04-30T02:34:13.796Z,76.05
2019-04-30T02:37:02.245Z,79.03
2019-04-30T02:39:33.641Z,76.05
2019-04-30T02:42:05.138Z,82.80
2019-04-30T02:44:40.553Z,78.50
2019-04-30T02:47:11.432Z,77.53
2019-04-30T02:49:43.386Z,83.27
2019-04-30T02:52:19.558Z,81.22
2019-04-30T02:54:50.595Z,76.45
2019-04-30T02:57:23.513Z,79.70
2019-04-30T03:00:09.889Z,80.05
2019-04-30T03:02:41.855Z,77.37
2019-04-30T03:05:14.050Z,81.32
2019-04-30T03:07:45.763Z,83.25
2019-04-30T03:10:19.779Z,81.67
2019-04-30T03:12:50.456Z,81.72
2019-04-30T03:15:22.853Z,77.53
2019-04-30T03:18:12.413Z,76.80
2019-04-30T03:20:59.866Z,78.02
2019-04-30T03:23:30.806Z,86.37
2019-04-30T03:26:02.657Z,78.70
2019-04-30T03:31:05.042Z,77.20
2019-04-30T03:33:36.536Z,81.12
2019-04-30T03:36:11.940Z,79.07
2019-04-30T03:38:42.802Z,81.53
2019-04-30T03:41:14.141Z,75.17
2019-04-30T03:43:45.561Z,78.83
2019-04-30T03:46:19.472Z,75.40
2019-04-30T03:48:51.117Z,80.60
2019-04-30T03:53:53.197Z,71.57
2019-04-30T03:56:25.768Z,76.30
2019-04-30T03:59:00.252Z,76.65
2019-04-30T04:01:39.925Z,83.37
2019-04-30T04:04:30.992Z,79.62
2019-04-30T04:07:04.182Z,76.50
2019-04-30T04:09:46.045Z,78.78
2019-04-30T04:12:29.998Z,75.70
2019-04-30T04:15:03.810Z,72.97
2019-04-30T04:17:35.414Z,75.45
2019-04-30T04:20:06.942Z,80.42
2019-04-30T04:22:40.292Z,86.87
2019-04-30T04:25:13.407Z,78.95
2019-04-30T04:27:45.025Z,75.03
2019-04-30T04:30:16.489Z,84.55
2019-04-30T04:32:50.085Z,75.05
2019-04-30T04:35:21.019Z,79.53
2019-04-30T04:37:52.590Z,83.87
2019-04-30T04:42:54.586Z,91.17
2019-04-30T04:45:26.096Z,88.22
2019-04-30T04:47:59.755Z,85.90
2019-04-30T04:50:30.834Z,75.85
2019-04-30T04:53:02.213Z,81.85
2019-04-30T04:55:34.770Z,80.30
2019-04-30T05:00:39.086Z,77.58
2019-04-30T05:03:20.719Z,83.30
2019-04-30T05:05:52.097Z,88.10
2019-04-30T05:08:23.492Z,80.20
2019-04-30T05:11:12.029Z,84.83
2019-04-30T05:14:08.348Z,78.92
2019-04-30T05:16:48.774Z,78.07
2019-04-30T05:19:21.475Z,77.70
2019-04-30T05:21:53.945Z,65.70
2019-04-30T05:24:25.417Z,64.10
2019-04-30T05:29:28.951Z,75.87
2019-04-30T05:32:00.546Z,70.05
2019-04-30T05:34:31.992Z,71.20
2019-04-30T05:37:03.510Z,51.40
2019-04-30T05:42:05.468Z,70.28
2019-04-30T05:47:09.278Z,70.17
2019-04-30T05:49:41.044Z,65.15
2019-04-30T05:52:12.477Z,74.40
2019-04-30T05:54:44.142Z,69.67
2019-04-30T05:57:15.666Z,92.25
2019-04-30T05:59:48.756Z,98.70
2019-04-30T06:02:20.105Z,98.82
2019-04-30T06:07:22.020Z,106.40
2019-04-30T06:10:00.808Z,96.55
2019-04-30T06:12:49.305Z,94.72
2019-04-30T06:15:29.059Z,112.28
2019-04-30T06:18:10.423Z,79.37
2019-04-30T06:20:33.897Z,82.25
2019-04-30T06:25:52.889Z,80.83
2019-04-30T06:28:09.744Z,74.07
2019-04-30T06:30:41.186Z,71.77
2019-04-30T06:33:12.564Z,70.35
2019-04-30T06:35:43.960Z,69.17
2019-04-30T06:38:15.371Z,74.50
2019-04-30T06:40:48.740Z,83.17
2019-04-30T06:43:20.015Z,67.62
2019-04-30T06:48:22.620Z,80.03
2019-04-30T06:50:54.054Z,72.45
2019-04-30T06:55:56.250Z,63.85
2019-04-30T06:58:29.122Z,58.60
2019-04-30T07:01:00.633Z,47.73
2019-04-30T07:06:02.601Z,44.38
2019-04-30T07:08:39.835Z,42.85
2019-04-30T07:11:26.438Z,57.10
2019-04-30T07:14:00.006Z,54.48
2019-04-30T07:16:30.982Z,44.03
2019-04-30T07:21:36.565Z,44.90
2019-04-30T07:24:06.136Z,38.88
2019-04-30T07:26:38.892Z,49.55
2019-04-30T07:29:10.496Z,42.27
2019-04-30T07:31:41.979Z,41.42
2019-04-30T07:34:13.386Z,39.90
2019-04-30T07:36:49.130Z,34.40
2019-04-30T07:39:19.197Z,37.45
2019-04-30T07:41:50.676Z,39.85
2019-04-30T07:44:31.089Z,34.90
2019-04-30T07:46:55.191Z,33.30
2019-04-30T07:49:45.949Z,31.75
2019-04-30T07:52:01.499Z,32.35
2019-04-30T07:54:32.647Z,36.85
2019-04-30T07:57:03.945Z,32.98
2019-04-30T07:59:36.433Z,36.20
2019-04-30T08:02:13.820Z,36.70
2019-04-30T08:04:45.354Z,27.07
2019-04-30T08:07:16.727Z,31.07
2019-04-30T08:09:49.321Z,35.58
2019-04-30T08:12:29.816Z,35.58
2019-04-30T08:14:54.151Z,36.65
2019-04-30T08:17:25.491Z,37.98
2019-04-30T08:19:58.633Z,33.15
2019-04-30T08:22:29.910Z,32.03
2019-04-30T08:27:31.749Z,31.55
2019-04-30T08:30:03.100Z,37.23
2019-04-30T08:32:35.095Z,33.67
2019-04-30T08:35:09.396Z,36.13
2019-04-30T08:37:40.658Z,40.35
2019-04-30T08:40:12.068Z,37.08
2019-04-30T08:45:13.880Z,39.58
2019-04-30T08:50:15.728Z,40.98
2019-04-30T08:52:49.030Z,37.08
2019-04-30T08:55:22.440Z,73.40
2019-04-30T08:58:06.577Z,31.55
2019-04-30T09:00:29.597Z,29.95
2019-04-30T09:03:00.574Z,30.35
2019-04-30T09:05:38.529Z,29.82
2019-04-30T09:08:11.228Z,27.58
2019-04-30T09:10:42.643Z,29.57
2019-04-30T09:13:13.978Z,27.55
2019-04-30T09:18:16.030Z,25.43
2019-04-30T09:20:49.380Z,24.40
2019-04-30T09:23:20.559Z,23.50
2019-04-30T09:25:51.905Z,22.80
2019-04-30T09:28:23.271Z,15.88
2019-04-30T09:30:54.725Z,16.87
2019-04-30T09:33:26.112Z,18.60
2019-04-30T09:35:59.413Z,18.10
2019-04-30T09:38:30.458Z,17.27
2019-04-30T09:43:32.432Z,17.15
2019-04-30T09:46:15.499Z,15.90
2019-04-30T09:48:38.621Z,15.65
2019-04-30T09:51:11.592Z,21.48
2019-04-30T09:53:55.390Z,13.03
2019-04-30T09:56:16.591Z,19.00
2019-04-30T09:58:49.241Z,16.12
2019-04-30T10:01:22.139Z,21.87
2019-04-30T10:03:54.156Z,19.37
2019-04-30T10:06:37.147Z,18.62
2019-04-30T10:08:59.739Z,24.90
2019-04-30T10:11:32.841Z,31.42
2019-04-30T10:14:04.409Z,31.93
2019-04-30T10:19:10.115Z,30.23
2019-04-30T10:21:42.347Z,36.42
2019-04-30T10:24:15.789Z,40.80
2019-04-30T10:26:46.756Z,45.43
2019-04-30T10:29:18.878Z,51.95
2019-04-30T10:31:50.962Z,64.42
2019-04-30T10:34:22.444Z,68.70
2019-04-30T10:36:53.809Z,78.05
2019-04-30T10:39:25.259Z,74.40
2019-04-30T10:41:56.791Z,66.75
2019-04-30T10:47:00.459Z,96.35
2019-04-30T10:49:31.816Z,102.00
2019-04-30T10:52:03.161Z,109.92
2019-04-30T10:54:35.502Z,117.65
2019-04-30T10:59:37.353Z,125.35
2019-04-30T11:02:09.108Z,127.07
2019-04-30T11:04:40.661Z,126.80
2019-04-30T11:07:11.987Z,125.50
2019-04-30T11:09:43.320Z,119.80
2019-04-30T11:14:45.201Z,108.10
2019-04-30T11:17:16.711Z,120.85
2019-04-30T11:19:49.255Z,108.07
2019-04-30T11:22:20.998Z,102.35
2019-04-30T11:27:24.804Z,101.97
2019-04-30T11:30:01.492Z,96.55
2019-04-30T11:32:30.773Z,92.40
2019-04-30T11:35:02.261Z,96.35
2019-04-30T11:37:33.832Z,92.08
2019-04-30T11:40:08.098Z,90.77
2019-04-30T11:42:39.470Z,95.87
2019-04-30T11:45:11.410Z,85.15
2019-04-30T11:47:53.088Z,82.90
2019-04-30T11:50:15.999Z,88.62
2019-04-30T11:52:47.430Z,79.00
2019-04-30T11:57:50.615Z,66.22
2019-04-30T12:00:23.648Z,68.02
2019-04-30T12:02:55.110Z,66.57
2019-04-30T12:08:14.615Z,70.20
2019-04-30T12:10:47.503Z,69.90
2019-04-30T12:13:30.267Z,63.73
2019-04-30T12:16:01.755Z,61.05
2019-04-30T12:18:33.360Z,65.17
2019-04-30T12:23:35.274Z,61.92
2019-04-30T12:28:37.213Z,57.30
2019-04-30T12:33:40.877Z,65.85
2019-04-30T12:36:12.165Z,58.63
2019-04-30T12:38:43.662Z,65.15
2019-04-30T12:41:15.112Z,58.25
2019-04-30T12:43:46.460Z,58.10
2019-04-30T12:48:51.721Z,48.33
2019-04-30T12:51:31.866Z,51.68
2019-04-30T12:54:04.909Z,52.95
2019-04-30T12:56:37.768Z,44.27
2019-04-30T12:59:09.081Z,51.83
2019-04-30T13:01:40.474Z,46.28
2019-04-30T13:04:11.874Z,44.53
2019-04-30T13:09:15.390Z,43.30
2019-04-30T13:11:48.239Z,46.83
2019-04-30T13:14:21.194Z,44.55
2019-04-30T13:16:52.700Z,43.45
2019-04-30T13:19:24.098Z,44.00
2019-04-30T13:24:26.058Z,43.73
2019-04-30T13:29:29.419Z,44.15
2019-04-30T13:32:00.812Z,44.67
2019-04-30T13:37:22.258Z,46.05
2019-04-30T13:42:30.312Z,38.55
2019-04-30T13:45:01.933Z,50.73
2019-04-30T13:47:33.318Z,48.02
2019-04-30T13:50:05.147Z,41.58
2019-04-30T13:52:36.615Z,46.37
2019-04-30T13:55:10.671Z,40.70
2019-04-30T13:57:41.131Z,37.85
2019-04-30T14:00:14.036Z,39.20
2019-04-30T14:02:47.208Z,39.70
2019-04-30T14:05:18.752Z,42.90
2019-04-30T14:07:59.729Z,40.67
2019-04-30T14:10:32.395Z,40.88
2019-04-30T14:13:04.419Z,41.00
2019-04-30T14:15:36.428Z,45.23
2019-04-30T14:18:09.374Z,47.08
2019-04-30T14:20:41.781Z,42.50
2019-04-30T14:23:13.300Z,41.68
2019-04-30T14:28:16.803Z,47.23
2019-04-30T14:30:48.151Z,48.68
2019-04-30T14:33:26.333Z,48.80
2019-04-30T14:35:52.569Z,46.02
2019-04-30T14:38:23.926Z,48.25
2019-04-30T14:40:55.807Z,47.15
2019-04-30T14:43:29.922Z,49.23
2019-04-30T14:46:10.294Z,49.42
2019-04-30T14:48:47.916Z,50.55
2019-04-30T14:51:19.547Z,47.53
2019-04-30T14:58:56.555Z,45.25
2019-04-30T15:01:38.677Z,47.03
2019-04-30T15:04:10.683Z,49.00
2019-04-30T15:06:42.234Z,45.95
2019-04-30T15:09:14.148Z,50.15
2019-04-30T15:11:45.603Z,52.78
2019-04-30T15:16:47.782Z,51.88
2019-04-30T15:21:49.721Z,51.55
2019-04-30T15:29:25.195Z,50.38
2019-04-30T15:31:56.607Z,49.73
2019-04-30T15:34:29.362Z,57.00
2019-04-30T15:37:01.029Z,58.40
2019-04-30T15:39:33.899Z,59.08
2019-04-30T15:42:05.287Z,53.60
2019-04-30T15:44:40.104Z,71.42
2019-04-30T15:47:09.925Z,59.27
2019-04-30T15:52:11.833Z,62.33
2019-04-30T15:54:43.223Z,54.55
2019-04-30T15:57:14.617Z,54.20
2019-04-30T15:59:45.973Z,63.13
2019-04-30T16:02:18.951Z,58.40
2019-04-30T16:05:09.296Z,69.80
2019-04-30T16:07:51.556Z,65.85
2019-04-30T16:10:41.544Z,63.33
2019-04-30T16:13:19.390Z,102.78
2019-04-30T16:15:50.600Z,84.58
2019-04-30T16:18:22.269Z,59.83
2019-04-30T16:23:32.095Z,53.28
2019-04-30T16:26:03.888Z,58.05
2019-04-30T16:28:36.453Z,59.67
2019-04-30T16:31:08.154Z,61.65
2019-04-30T16:33:40.151Z,59.95
2019-04-30T16:36:11.584Z,60.78
2019-04-30T16:38:43.438Z,57.73
2019-04-30T16:43:45.438Z,59.77
2019-04-30T16:46:16.812Z,64.85
2019-04-30T16:48:49.286Z,60.80
2019-04-30T16:51:21.352Z,62.83
2019-04-30T16:53:52.796Z,66.20
2019-04-30T16:59:02.438Z,64.82
2019-04-30T17:01:34.850Z,66.42
2019-04-30T17:04:20.144Z,62.53
2019-04-30T17:06:53.194Z,64.00
2019-04-30T17:09:42.404Z,61.37
2019-04-30T17:12:19.699Z,61.73
2019-04-30T17:14:52.974Z,63.28
2019-04-30T17:17:24.335Z,71.65
2019-04-30T17:19:55.768Z,65.10
2019-04-30T17:22:27.170Z,67.55
2019-04-30T17:27:29.468Z,74.87
2019-04-30T17:30:01.701Z,90.60
2019-04-30T17:32:34.293Z,96.12
2019-04-30T17:35:09.019Z,97.85
2019-04-30T17:37:40.644Z,89.90
2019-04-30T17:40:13.166Z,79.77
2019-04-30T17:45:15.069Z,66.62
2019-04-30T17:47:46.695Z,67.37
2019-04-30T17:50:18.753Z,72.42
2019-04-30T17:52:50.419Z,62.88
2019-04-30T17:55:21.834Z,71.75
2019-04-30T17:57:54.990Z,74.27
2019-04-30T18:00:29.285Z,76.00
2019-04-30T18:03:00.835Z,78.17
2019-04-30T18:05:32.258Z,80.05
2019-04-30T18:08:03.602Z,88.12
2019-04-30T18:10:35.803Z,72.05
2019-04-30T18:13:07.330Z,73.75
2019-04-30T18:15:38.728Z,72.65
2019-04-30T18:18:23.779Z,75.00
2019-04-30T18:21:02.642Z,80.60
2019-04-30T18:23:51.796Z,70.60
2019-04-30T18:26:23.180Z,77.70
2019-04-30T18:28:55.588Z,76.25
2019-04-30T18:31:27.196Z,76.35
2019-04-30T18:33:59.350Z,78.67
2019-04-30T18:36:31.109Z,81.70
2019-04-30T18:41:34.579Z,77.03
2019-04-30T18:46:36.635Z,70.22
2019-04-30T18:49:08.062Z,69.58
2019-04-30T18:51:42.709Z,71.02
2019-04-30T18:54:12.747Z,68.12
2019-04-30T18:56:44.228Z,73.70
2019-04-30T18:59:15.549Z,76.45
2019-04-30T19:01:47.073Z,63.65
2019-04-30T19:04:18.953Z,67.40
2019-04-30T19:06:52.334Z,74.37
2019-04-30T19:09:40.352Z,67.58
2019-04-30T19:12:19.533Z,61.55
2019-04-30T19:15:08.601Z,58.80
2019-04-30T19:17:41.658Z,63.55
2019-04-30T19:20:18.786Z,65.22
2019-04-30T19:22:50.307Z,69.70
2019-04-30T19:27:53.291Z,63.20
2019-04-30T19:30:24.721Z,63.48
2019-04-30T19:32:56.164Z,69.42
2019-04-30T19:35:27.560Z,72.62
2019-04-30T19:37:59.298Z,74.22
2019-04-30T19:40:30.763Z,69.50
2019-04-30T19:43:03.770Z,76.50
2019-04-30T19:45:35.958Z,69.12
2019-04-30T19:48:09.011Z,68.70
2019-04-30T19:50:43.518Z,63.70
2019-04-30T19:53:15.949Z,63.48
2019-04-30T19:55:49.126Z,69.75
2019-04-30T19:58:29.535Z,71.07
2019-04-30T20:00:53.528Z,69.65
2019-04-30T20:03:25.032Z,78.15
2019-04-30T20:05:58.587Z,67.12
2019-04-30T20:08:30.171Z,72.25
2019-04-30T20:11:01.553Z,62.90
2019-04-30T20:16:05.175Z,73.95
2019-04-30T20:18:36.703Z,74.12
2019-04-30T20:21:09.637Z,74.40
2019-04-30T20:23:42.152Z,64.10
2019-04-30T20:26:13.643Z,70.42
2019-04-30T20:28:44.983Z,70.37
2019-04-30T20:31:16.382Z,72.30
2019-04-30T20:33:48.981Z,63.20
2019-04-30T20:36:20.495Z,68.25
2019-04-30T20:38:54.490Z,67.45
2019-04-30T20:41:28.579Z,73.92
2019-04-30T20:44:00.123Z,67.78
2019-04-30T20:46:35.181Z,77.00
2019-04-30T20:49:04.655Z,74.30
2019-04-30T20:51:35.989Z,64.45
2019-04-30T20:54:09.130Z,62.08
2019-04-30T20:56:40.558Z,61.63
2019-04-30T20:59:11.970Z,62.83
2019-04-30T21:01:43.354Z,62.03
2019-04-30T21:04:15.943Z,63.85
2019-04-30T21:06:49.514Z,67.87
2019-04-30T21:09:20.405Z,65.12
2019-04-30T21:11:51.774Z,65.67
2019-04-30T21:14:23.143Z,65.67
2019-04-30T21:16:54.529Z,61.05
2019-04-30T21:19:25.979Z,62.10
2019-04-30T21:21:57.316Z,60.05
2019-04-30T21:24:28.704Z,72.60
2019-04-30T21:27:00.110Z,86.08
2019-04-30T21:29:31.614Z,69.30
2019-04-30T21:32:16.839Z,68.67
2019-04-30T21:34:54.479Z,70.60
2019-04-30T21:37:26.163Z,70.17
2019-04-30T21:39:58.597Z,71.00
2019-04-30T21:42:30.163Z,69.37
2019-04-30T21:45:01.572Z,70.32
2019-04-30T21:47:34.016Z,58.40
2019-04-30T21:50:09.958Z,62.13
2019-04-30T21:52:40.662Z,57.33
2019-04-30T21:55:12.024Z,61.02
2019-04-30T21:57:44.485Z,58.50
2019-04-30T22:00:18.532Z,53.63
2019-04-30T22:02:51.506Z,64.00
2019-04-30T22:05:22.886Z,59.10
2019-04-30T22:07:54.329Z,62.73
2019-04-30T22:10:27.056Z,61.88
2019-04-30T22:12:58.725Z,52.93
2019-04-30T22:15:30.216Z,59.42
2019-04-30T22:18:01.518Z,58.10
2019-04-30T22:20:32.981Z,62.95
2019-04-30T22:23:04.385Z,60.33
2019-04-30T22:25:35.779Z,58.30
2019-04-30T22:28:07.166Z,58.23
2019-04-30T22:30:39.129Z,56.15
2019-04-30T22:33:10.875Z,59.23
2019-04-30T22:35:50.232Z,55.38
2019-04-30T22:38:32.207Z,54.38
2019-04-30T22:41:03.537Z,57.93
2019-04-30T22:43:34.894Z,56.28
2019-04-30T22:46:09.624Z,58.98
2019-04-30T22:48:40.832Z,58.30
2019-04-30T22:51:12.197Z,57.62
2019-04-30T22:53:43.573Z,55.40
2019-04-30T22:56:16.118Z,57.90
2019-04-30T22:58:47.449Z,58.23
2019-04-30T23:01:20.510Z,61.00
2019-04-30T23:03:53.414Z,61.77
2019-04-30T23:06:24.816Z,57.40
2019-04-30T23:08:56.166Z,56.02
2019-04-30T23:11:27.590Z,54.10
2019-04-30T23:13:58.975Z,59.13
2019-04-30T23:16:30.415Z,53.52
2019-04-30T23:19:01.805Z,52.17
2019-04-30T23:21:33.175Z,53.48
2019-04-30T23:24:04.677Z,58.05
2019-04-30T23:26:36.077Z,52.65
2019-04-30T23:29:07.484Z,50.55
2019-04-30T23:31:38.893Z,54.18
2019-04-30T23:34:17.779Z,50.63
2019-04-30T23:36:44.409Z,50.33
2019-04-30T23:39:15.791Z,48.85
2019-04-30T23:41:47.160Z,57.30
2019-04-30T23:44:18.605Z,48.92
2019-04-30T23:46:50.062Z,56.20
2019-04-30T23:49:21.462Z,53.55
2019-04-30T23:51:52.920Z,57.95
2019-04-30T23:54:24.308Z,50.63
2019-04-30T23:56:55.783Z,56.40
2019-04-30T23:59:27.164Z,50.90
